Terminal Aerodrome Forecast
Issued by NWS Charleston, WV

Current Version | Previous Version | Graphics & Text | Print | Product List | Glossary Off
Versions: 1 2 3 4 5 6 7 8 9 10 11 12 13 14 15 16 17 18 19 20 21 22 23 24 25 26 27

000
FTUS41 KRLX 100200 AAA
TAFBKW
TAF AMD
KBKW 100222Z 1002/1024 VRB03KT P6SM BKN045
     FM100300 00000KT 6SM BR SCT040
     FM100500 00000KT 4SM BR SCT001
     FM100700 00000KT 2SM BR SCT001
      TEMPO 1007/1010 3/4SM BR BKN001
     FM101200 VRB03KT 5SM BR SCT020
     FM101300 VRB03KT P6SM BKN026
     FM101500 VRB03KT P6SM BKN035=

USA.gov is the U.S. government's official web portal to all federal, state and local government web resources and services.